»·PEaware :: N7474J KVGT-KIFP

N7474J :: KVGT-KIFP

FLIGHT INFORMATION

Flight Status: Arrived
Operator: Privately registered:
United States
More flights under this callsign
Pilot: Jamil M. (37589)
Aircraft: Diamond DA-40
(DA40)
More flights by this aircraft type
Origin: KVGT North Las Vegas
United States
Destination: KIFP Laughlin/Bullhead Intl
United States
More flights between these airports :: More routes between these airports
Route: ROCKS
File this flight plan on PilotEdge
Remarks:
Altitude:
(Current/Filed)
7,500ft
Speed:
(Current/Filed)
0kts
Departed: 06-Feb-22 08:10 PM
Arrived: 06-Feb-22 09:00 PM
Distance/Time
Traveled:
71nm/0:50
Distance/Time
To Go:
Arrived

Flight Plot

Page will automatically refresh every two minutes.

Flight plan parsing failed; only flown route is shown


Map Options




Map Legend


Flown Route
Filed Route
Departure Airport
Arrival Airport
Navaid (VOR, NDB)
Fix

Horizontal Profiles

Position Reports

Time Latitude Longitude Heading Altitude Ground
Speed
06-Feb-22 19:54 36.209464 -115.198486 346 2192ft 0kts
06-Feb-22 19:54 36.209464 -115.198486 346 2192ft 0kts
06-Feb-22 19:55 36.209464 -115.198486 346 2192ft 0kts
06-Feb-22 19:56 36.209464 -115.198486 346 2192ft 0kts
06-Feb-22 19:57 36.209464 -115.198486 346 2192ft 0kts
06-Feb-22 19:59 36.209464 -115.198486 346 2192ft 0kts
06-Feb-22 19:59 36.209464 -115.198486 346 2192ft 0kts
06-Feb-22 20:00 36.209464 -115.198486 346 2192ft 0kts
06-Feb-22 20:01 36.209464 -115.198486 346 2192ft 0kts
06-Feb-22 20:02 36.209464 -115.198486 346 2192ft 0kts
06-Feb-22 20:03 36.209475 -115.198490 346 2192ft 0kts
06-Feb-22 20:04 36.210619 -115.198709 320 2194ft 7kts
06-Feb-22 20:05 36.212674 -115.201863 267 2203ft 10kts
06-Feb-22 20:06 36.212605 -115.203304 351 2206ft 0kts
06-Feb-22 20:07 36.213276 -115.203317 358 2208ft 15kts
06-Feb-22 20:08 36.214166 -115.203223 37 2209ft 0kts
06-Feb-22 20:09 36.211730 -115.198928 134 2195ft 75kts
06-Feb-22 20:10 36.192918 -115.177723 154 2924ft 108kts
06-Feb-22 20:11 36.187917 -115.203745 288 4007ft 98kts
06-Feb-22 20:12 36.192039 -115.239808 257 4019ft 100kts
06-Feb-22 20:13 36.185428 -115.271318 257 3963ft 89kts
06-Feb-22 20:14 36.178647 -115.306061 257 3985ft 112kts
06-Feb-22 20:15 36.168808 -115.343324 248 3990ft 115kts
06-Feb-22 20:16 36.144623 -115.359524 173 4041ft 130kts
06-Feb-22 20:17 36.108798 -115.359403 182 4427ft 128kts
06-Feb-22 20:23 35.897730 -115.345303 172 4403ft 130kts
06-Feb-22 20:24 35.861890 -115.344301 176 5001ft 130kts
06-Feb-22 20:25 35.822675 -115.347623 182 5315ft 155kts
06-Feb-22 20:26 35.778400 -115.352137 182 5312ft 158kts
06-Feb-22 20:27 35.738191 -115.356784 182 5304ft 139kts
06-Feb-22 20:28 35.708236 -115.338694 125 5972ft 125kts
06-Feb-22 20:29 35.682907 -115.310513 126 6902ft 118kts
06-Feb-22 20:30 35.659489 -115.285895 126 7783ft 108kts
06-Feb-22 20:31 35.636536 -115.261399 126 8309ft 108kts
06-Feb-22 20:32 35.613802 -115.237090 126 9252ft 119kts
06-Feb-22 20:33 35.587570 -115.206700 126 9248ft 134kts
06-Feb-22 20:34 35.560285 -115.174535 126 9231ft 135kts
06-Feb-22 20:35 35.535635 -115.139401 117 9254ft 130kts
06-Feb-22 20:36 35.514789 -115.106039 116 9246ft 119kts
06-Feb-22 20:37 35.494423 -115.073696 116 9252ft 118kts
06-Feb-22 20:38 35.474262 -115.041514 116 9247ft 118kts
06-Feb-22 20:39 35.454063 -115.009375 116 8980ft 120kts
06-Feb-22 20:40 35.436041 -114.976630 105 8377ft 112kts
06-Feb-22 20:41 35.421042 -114.943329 105 7740ft 106kts
06-Feb-22 20:42 35.406277 -114.912779 106 7192ft 102kts
06-Feb-22 20:43 35.391306 -114.883142 105 6652ft 102kts
06-Feb-22 20:44 35.375462 -114.852331 106 6121ft 109kts
06-Feb-22 20:45 35.365364 -114.818496 91 5500ft 109kts
06-Feb-22 20:46 35.356817 -114.782822 90 4914ft 107kts
06-Feb-22 20:47 35.348307 -114.748258 91 4387ft 104kts
06-Feb-22 20:48 35.340010 -114.714142 96 3947ft 104kts
06-Feb-22 20:49 35.332502 -114.679047 94 3456ft 109kts
06-Feb-22 20:50 35.324973 -114.645120 122 3453ft 110kts
06-Feb-22 20:51 35.301757 -114.617796 128 3459ft 116kts
06-Feb-22 20:52 35.277442 -114.592695 153 3443ft 118kts
06-Feb-22 20:53 35.245824 -114.582705 166 3429ft 118kts
06-Feb-22 20:54 35.213349 -114.577795 172 3110ft 114kts
06-Feb-22 20:55 35.180163 -114.570372 174 2088ft 124kts
06-Feb-22 20:56 35.150501 -114.573027 175 1633ft 105kts
06-Feb-22 20:57 35.123157 -114.569065 140 1351ft 93kts
06-Feb-22 20:58 35.132579 -114.557617 355 1083ft 68kts
06-Feb-22 20:59 35.148138 -114.558807 357 691ft 31kts
06-Feb-22 21:00 35.151361 -114.557918 88 681ft 0kts
06-Feb-22 21:01 35.151594 -114.557739 1 680ft 9kts
06-Feb-22 21:02 35.156026 -114.556855 83 665ft 16kts
06-Feb-22 21:03 35.158099 -114.556206 261 657ft 0kts
06-Feb-22 21:04 35.157309 -114.556143 91 660ft 0kts
06-Feb-22 21:05 35.157309 -114.556143 91 660ft 0kts

Navigation Log

Ident Type
Flight plan parsing failed, navigation log unavailable